createdAt,value
2022-10-10T00:01:27.415Z,10.50
2022-10-10T00:06:33.293Z,10.40
2022-10-10T00:11:36.963Z,10.40
2022-10-10T00:16:41.035Z,10.40
2022-10-10T00:21:43.881Z,10.30
2022-10-10T00:26:46.723Z,10.30
2022-10-10T00:31:50.784Z,10.40
2022-10-10T00:36:53.556Z,10.50
2022-10-10T00:41:56.355Z,10.40
2022-10-10T00:47:00.461Z,10.40
2022-10-10T00:52:03.650Z,10.30
2022-10-10T00:57:09.823Z,10.20
2022-10-10T01:02:13.935Z,10.20
2022-10-10T01:07:20.031Z,10.10
2022-10-10T01:12:27.791Z,10.00
2022-10-10T01:17:36.119Z,10.00
2022-10-10T01:22:46.968Z,10.10
2022-10-10T01:27:54.749Z,10.10
2022-10-10T01:33:07.594Z,10.00
2022-10-10T01:38:26.366Z,10.00
2022-10-10T01:43:30.717Z,10.00
2022-10-10T01:48:34.815Z,10.00
2022-10-10T01:53:44.512Z,10.10
2022-10-10T01:59:02.272Z,10.10
2022-10-10T02:04:15.061Z,10.20
2022-10-10T02:09:22.846Z,10.10
2022-10-10T02:14:29.967Z,10.00
2022-10-10T02:19:34.470Z,10.10
2022-10-10T02:24:37.460Z,10.00
2022-10-10T02:29:43.701Z,10.00
2022-10-10T02:34:50.928Z,10.00
2022-10-10T02:39:59.116Z,10.00
2022-10-10T02:45:02.781Z,10.00
2022-10-10T02:50:08.037Z,9.90
2022-10-10T02:55:11.042Z,9.90
2022-10-10T03:00:15.041Z,10.00
2022-10-10T03:05:19.356Z,9.90
2022-10-10T03:10:22.155Z,9.90
2022-10-10T03:15:24.891Z,9.90
2022-10-10T03:20:29.008Z,9.80
2022-10-10T03:25:31.765Z,9.90
2022-10-10T03:30:34.595Z,9.80
2022-10-10T03:35:39.079Z,9.70
2022-10-10T03:40:42.918Z,9.80
2022-10-10T03:45:47.602Z,9.90
2022-10-10T03:50:51.778Z,9.90
2022-10-10T03:55:55.497Z,9.80
2022-10-10T04:00:59.641Z,9.80
2022-10-10T04:06:03.783Z,9.70
2022-10-10T04:11:06.744Z,9.60
2022-10-10T04:16:09.529Z,9.60
2022-10-10T04:21:13.975Z,9.70
2022-10-10T04:26:16.767Z,9.90
2022-10-10T04:31:19.539Z,9.90
2022-10-10T04:36:23.822Z,9.90
2022-10-10T04:41:26.900Z,9.90
2022-10-10T04:46:29.642Z,9.80
2022-10-10T04:51:33.971Z,9.90
2022-10-10T04:56:36.715Z,10.00
2022-10-10T05:01:39.611Z,10.00
2022-10-10T05:06:43.994Z,10.10
2022-10-10T05:11:46.729Z,10.10
2022-10-10T05:16:49.567Z,10.10
2022-10-10T05:21:53.682Z,10.10
2022-10-10T05:26:56.473Z,10.00
2022-10-10T05:31:59.244Z,10.00
2022-10-10T05:37:03.396Z,10.00
2022-10-10T05:42:06.393Z,10.00
2022-10-10T05:47:09.222Z,10.10
2022-10-10T05:52:13.488Z,10.10
2022-10-10T05:57:16.653Z,10.20
2022-10-10T06:02:19.504Z,10.30
2022-10-10T06:07:23.860Z,10.50
2022-10-10T06:12:26.621Z,10.60
2022-10-10T06:17:29.391Z,10.70
2022-10-10T06:22:33.505Z,11.00
2022-10-10T06:27:36.626Z,11.30
2022-10-10T06:32:39.725Z,11.50
2022-10-10T06:37:43.829Z,11.70
2022-10-10T06:42:46.567Z,11.90
2022-10-10T06:47:49.391Z,11.90
2022-10-10T06:52:53.785Z,12.10
2022-10-10T06:57:56.740Z,12.10
2022-10-10T07:02:59.510Z,12.30
2022-10-10T07:08:03.603Z,12.30
2022-10-10T07:13:06.401Z,12.40
2022-10-10T07:18:09.194Z,12.40
2022-10-10T07:23:13.468Z,12.60
2022-10-10T07:28:16.473Z,12.80
2022-10-10T07:33:19.202Z,13.00
2022-10-10T07:38:23.292Z,13.20
2022-10-10T07:43:26.043Z,13.50
2022-10-10T07:48:28.845Z,13.80
2022-10-10T07:53:32.994Z,13.90
2022-10-10T07:58:36.144Z,13.90
2022-10-10T08:03:39.413Z,14.30
2022-10-10T08:08:50.792Z,14.30
2022-10-10T08:13:54.248Z,14.50
2022-10-10T08:18:57.048Z,15.20
2022-10-10T08:24:01.123Z,15.50
2022-10-10T08:29:03.873Z,16.10
2022-10-10T08:34:06.713Z,15.70
2022-10-10T08:39:11.293Z,16.10
2022-10-10T08:44:20.823Z,16.60
2022-10-10T08:49:30.879Z,16.80
2022-10-10T08:54:37.480Z,17.40
2022-10-10T08:59:43.095Z,18.10
2022-10-10T09:04:45.933Z,19.20
2022-10-10T09:09:58.380Z,19.40
2022-10-10T09:15:10.855Z,19.60
2022-10-10T09:20:23.128Z,18.80
2022-10-10T09:25:32.654Z,19.10
2022-10-10T09:30:41.087Z,20.30
2022-10-10T09:35:44.263Z,21.50
2022-10-10T09:40:53.279Z,24.20
2022-10-10T09:45:57.139Z,24.80
2022-10-10T09:51:02.886Z,26.40
2022-10-10T09:56:09.261Z,31.40
2022-10-10T10:01:15.655Z,32.40
2022-10-10T10:06:18.520Z,30.00
2022-10-10T10:11:29.124Z,26.00
2022-10-10T10:16:34.830Z,24.80
2022-10-10T10:21:51.029Z,22.90
2022-10-10T10:26:57.332Z,22.40
2022-10-10T10:32:07.145Z,23.50
2022-10-10T10:37:19.023Z,23.80
2022-10-10T10:42:39.206Z,22.80
2022-10-10T10:47:53.892Z,22.70
2022-10-10T10:53:04.966Z,22.00
2022-10-10T10:59:10.403Z,22.10
2022-10-10T11:05:19.393Z,22.80
2022-10-10T11:09:49.127Z,23.90
2022-10-10T11:14:58.960Z,23.80
2022-10-10T11:20:06.796Z,22.20
2022-10-10T11:25:16.900Z,23.40
2022-10-10T11:30:23.981Z,23.70
2022-10-10T11:35:36.085Z,23.30
2022-10-10T11:40:48.823Z,23.70
2022-10-10T11:46:02.931Z,24.40
2022-10-10T11:51:17.879Z,23.40
2022-10-10T11:56:27.545Z,22.70
2022-10-10T12:01:36.643Z,22.90
2022-10-10T12:06:44.867Z,24.50
2022-10-10T12:11:52.717Z,26.90
2022-10-10T12:16:57.207Z,25.70
2022-10-10T12:22:02.064Z,23.90
2022-10-10T12:27:43.597Z,23.40
2022-10-10T12:32:50.145Z,24.20
2022-10-10T12:38:24.266Z,24.90
2022-10-10T12:43:39.407Z,25.90
2022-10-10T12:48:44.222Z,28.90
2022-10-10T12:53:50.454Z,29.10
2022-10-10T12:58:53.417Z,29.00
2022-10-10T13:03:57.813Z,25.60
2022-10-10T13:09:03.779Z,24.80
2022-10-10T13:14:09.288Z,25.10
2022-10-10T13:19:19.247Z,23.90
2022-10-10T13:24:27.706Z,23.10
2022-10-10T13:29:32.700Z,23.00
2022-10-10T13:34:40.468Z,22.20
2022-10-10T13:39:43.834Z,21.10
2022-10-10T13:44:51.502Z,21.00
2022-10-10T13:49:58.681Z,21.10
2022-10-10T13:55:16.958Z,21.10
2022-10-10T14:00:22.314Z,20.80
2022-10-10T14:05:30.162Z,20.80
2022-10-10T14:10:36.011Z,21.30
2022-10-10T14:15:46.647Z,21.30
2022-10-10T14:20:51.470Z,21.80
2022-10-10T14:25:54.280Z,22.30
2022-10-10T14:30:57.142Z,21.10
2022-10-10T14:36:01.714Z,20.10
2022-10-10T14:41:05.269Z,19.40
2022-10-10T14:46:17.797Z,19.00
2022-10-10T14:51:33.240Z,19.00
2022-10-10T14:57:08.680Z,19.70
2022-10-10T15:02:01.041Z,19.30
2022-10-10T15:07:13.304Z,19.20
2022-10-10T15:12:17.343Z,19.10
2022-10-10T15:17:20.141Z,18.80
2022-10-10T15:22:24.290Z,18.60
2022-10-10T15:27:28.288Z,18.80
2022-10-10T15:32:31.083Z,20.50
2022-10-10T15:37:35.222Z,21.10
2022-10-10T15:42:38.109Z,20.50
2022-10-10T15:47:46.272Z,19.40
2022-10-10T15:52:50.753Z,18.70
2022-10-10T15:57:53.588Z,18.20
2022-10-10T16:02:56.351Z,17.60
2022-10-10T16:08:00.865Z,17.10
2022-10-10T16:13:03.624Z,16.80
2022-10-10T16:18:06.600Z,16.40
2022-10-10T16:23:10.680Z,16.30
2022-10-10T16:28:13.598Z,16.10
2022-10-10T16:33:16.417Z,16.00
2022-10-10T16:38:20.596Z,16.00
2022-10-10T16:43:23.351Z,15.90
2022-10-10T16:48:26.215Z,15.80
2022-10-10T16:53:30.583Z,15.80
2022-10-10T16:58:34.267Z,15.70
2022-10-10T17:03:37.120Z,15.60
2022-10-10T17:08:41.324Z,15.60
2022-10-10T17:13:44.564Z,15.60
2022-10-10T17:18:47.551Z,15.40
2022-10-10T17:23:52.471Z,15.30
2022-10-10T17:28:56.312Z,15.20
2022-10-10T17:33:59.064Z,15.10
2022-10-10T17:39:03.640Z,15.00
2022-10-10T17:44:10.338Z,14.90
2022-10-10T17:49:14.050Z,14.70
2022-10-10T17:54:18.338Z,14.60
2022-10-10T17:59:21.175Z,14.20
2022-10-10T18:04:24.181Z,14.30
2022-10-10T18:09:28.307Z,14.30
2022-10-10T18:14:31.036Z,14.20
2022-10-10T18:19:33.918Z,14.30
2022-10-10T18:24:40.689Z,14.30
2022-10-10T18:29:44.447Z,14.10
2022-10-10T18:34:48.381Z,14.10
2022-10-10T18:39:56.414Z,13.90
2022-10-10T18:45:00.300Z,13.60
2022-10-10T18:50:03.461Z,13.30
2022-10-10T18:55:08.665Z,13.20
2022-10-10T19:00:13.306Z,13.40
2022-10-10T19:05:16.707Z,13.20
2022-10-10T19:10:26.322Z,13.20
2022-10-10T19:15:29.168Z,13.10
2022-10-10T19:20:32.436Z,13.10
2022-10-10T19:25:39.594Z,13.30
2022-10-10T19:30:44.100Z,13.20
2022-10-10T19:35:51.266Z,12.70
2022-10-10T19:40:57.007Z,12.50
2022-10-10T19:45:59.907Z,12.40
2022-10-10T19:51:05.438Z,12.40
2022-10-10T19:56:12.329Z,12.40
2022-10-10T20:01:17.364Z,12.10
2022-10-10T20:06:21.663Z,12.00
2022-10-10T20:11:26.327Z,12.10
2022-10-10T20:16:29.365Z,12.00
2022-10-10T20:21:34.110Z,12.00
2022-10-10T20:26:38.358Z,12.10
2022-10-10T20:31:41.148Z,12.00
2022-10-10T20:36:43.943Z,11.90
2022-10-10T20:41:48.029Z,11.60
2022-10-10T20:46:50.812Z,11.30
2022-10-10T20:51:53.577Z,11.40
2022-10-10T20:56:57.664Z,11.40
2022-10-10T21:02:00.560Z,11.30
2022-10-10T21:07:03.372Z,11.00
2022-10-10T21:12:07.892Z,10.70
2022-10-10T21:17:10.639Z,10.50
2022-10-10T21:22:13.442Z,10.30
2022-10-10T21:27:18.039Z,10.70
2022-10-10T21:32:20.795Z,10.60
2022-10-10T21:37:27.059Z,10.40
2022-10-10T21:42:31.165Z,10.30
2022-10-10T21:47:33.959Z,10.20
2022-10-10T21:52:36.690Z,10.20
2022-10-10T21:57:40.849Z,10.30
2022-10-10T22:02:44.697Z,10.20
2022-10-10T22:07:47.696Z,10.10
2022-10-10T22:12:51.825Z,10.20
2022-10-10T22:17:55.138Z,10.30
2022-10-10T22:22:58.101Z,10.20
2022-10-10T22:28:06.049Z,10.00
2022-10-10T22:33:09.711Z,10.30
2022-10-10T22:38:12.498Z,10.00
2022-10-10T22:43:16.760Z,9.90
2022-10-10T22:48:19.558Z,9.60
2022-10-10T22:53:24.026Z,9.60
2022-10-10T22:58:28.386Z,9.50
2022-10-10T23:03:31.165Z,9.60
2022-10-10T23:08:34.231Z,9.60
2022-10-10T23:13:38.360Z,9.40
2022-10-10T23:18:41.130Z,9.30
2022-10-10T23:23:43.882Z,9.30
2022-10-10T23:28:50.412Z,9.30
2022-10-10T23:33:53.414Z,9.20
2022-10-10T23:38:56.155Z,9.30
2022-10-10T23:44:00.285Z,9.30
2022-10-10T23:49:03.064Z,9.10
2022-10-10T23:54:05.914Z,8.90
2022-10-10T23:59:10.019Z,8.90
